Time;durP1;ratioP1;P1;durP2;ratioP2;P2;SDS_P1;SDS_P2;PMS_P1;PMS_P2;Temp;Humidity;BMP_temperature;BMP_pressure;BME280_temperature;BME280_humidity;BME280_pressure;Samples;Min_cycle;Max_cycle;Signal;HPM_P1;HPM_P2
2022/11/21 00:01:19;;;;;;;28.07;15.50;;;;;;;2.47;85.90;100729.27;1739150;81;25829;-62
2022/11/21 00:03:46;;;;;;;29.05;17.05;;;;;;;2.47;85.91;100743.88;1749312;80;26628;-62
2022/11/21 00:06:14;;;;;;;29.63;16.27;;;;;;;2.45;85.98;100736.48;1739059;81;25786;-61
2022/11/21 00:08:41;;;;;;;27.87;15.88;;;;;;;2.42;85.83;100733.15;1739313;82;27418;-62
2022/11/21 00:11:08;;;;;;;28.23;15.65;;;;;;;2.41;85.91;100733.59;1738887;82;25822;-62
2022/11/21 00:13:34;;;;;;;25.70;14.65;;;;;;;2.42;85.28;100721.20;1739327;81;25735;-62
2022/11/21 00:16:10;;;;;;;25.65;14.45;;;;;;;2.40;84.89;100714.63;1738948;82;25776;-61
2022/11/21 00:18:38;;;;;;;28.75;15.08;;;;;;;2.36;84.72;100719.73;1739093;81;25733;-62
2022/11/21 00:21:13;;;;;;;27.82;16.02;;;;;;;2.32;84.84;100727.02;1738968;81;27705;-62
2022/11/21 00:23:39;;;;;;;33.53;17.35;;;;;;;2.30;85.04;100730.22;1738914;82;25730;-63
2022/11/21 00:26:09;;;;;;;29.92;17.07;;;;;;;2.32;85.36;100733.66;1738971;81;25771;-62
2022/11/21 00:28:36;;;;;;;26.02;14.80;;;;;;;2.34;85.61;100721.61;1739162;82;25782;-62
2022/11/21 00:31:05;;;;;;;28.12;14.90;;;;;;;2.38;85.99;100725.79;1738826;82;25813;-62
2022/11/21 00:33:37;;;;;;;32.63;15.78;;;;;;;2.44;86.37;100728.58;1738955;82;27647;-62
2022/11/21 00:36:09;;;;;;;29.42;15.72;;;;;;;2.43;85.83;100743.67;1739270;81;25781;-63
2022/11/21 00:38:39;;;;;;;25.72;13.85;;;;;;;2.33;85.29;100749.09;1739151;82;25790;-63
2022/11/21 00:41:08;;;;;;;27.82;14.05;;;;;;;2.17;84.98;100750.39;1739256;82;25792;-63
2022/11/21 00:43:34;;;;;;;25.77;15.30;;;;;;;2.07;85.23;100738.55;1739152;82;25477;-63
2022/11/21 00:46:01;;;;;;;26.93;14.30;;;;;;;2.03;85.51;100734.75;1748323;80;27446;-62
2022/11/21 00:48:30;;;;;;;26.93;15.00;;;;;;;2.06;85.95;100732.40;1748432;81;25713;-63
2022/11/21 00:50:59;;;;;;;31.02;15.38;;;;;;;2.14;86.45;100739.95;1798852;79;25711;-63
2022/11/21 00:53:28;;;;;;;31.25;16.15;;;;;;;2.22;86.75;100740.39;1802826;79;25781;-63
2022/11/21 00:55:55;;;;;;;32.67;17.30;;;;;;;2.32;87.08;100736.30;1802858;79;26070;-63
2022/11/21 00:58:22;;;;;;;32.30;16.97;;;;;;;2.40;86.87;100734.54;1802719;79;27688;-62
2022/11/21 01:00:49;;;;;;;31.57;16.62;;;;;;;2.40;86.17;100736.34;1802450;79;25823;-62
2022/11/21 01:03:20;;;;;;;31.87;16.05;;;;;;;2.39;85.94;100736.80;1802773;78;25699;-63
2022/11/21 01:05:47;;;;;;;26.68;14.95;;;;;;;2.43;86.33;100741.02;1803201;79;25889;-62
2022/11/21 01:08:14;;;;;;;28.95;15.35;;;;;;;2.49;86.30;100747.79;1803167;79;25762;-61
2022/11/21 01:10:40;;;;;;;28.38;15.03;;;;;;;2.49;86.17;100745.98;1803033;79;27697;-62
2022/11/21 01:13:07;;;;;;;26.90;14.83;;;;;;;2.44;85.33;100747.17;1802730;78;25678;-62
2022/11/21 01:15:34;;;;;;;29.60;15.13;;;;;;;2.36;85.08;100746.28;1802549;79;25848;-63
2022/11/21 01:18:09;;;;;;;28.62;13.58;;;;;;;2.39;85.78;100750.08;1802752;78;26337;-64
2022/11/21 01:20:34;;;;;;;26.73;13.15;;;;;;;2.33;85.32;100742.45;1802275;79;25806;-62
2022/11/21 01:23:00;;;;;;;24.57;12.53;;;;;;;2.32;85.77;100736.76;1771718;79;28242;-63
2022/11/21 01:25:27;;;;;;;23.98;12.28;;;;;;;2.35;85.66;100735.27;1802436;79;25789;-63
2022/11/21 01:27:53;;;;;;;24.98;12.43;;;;;;;2.33;85.75;100729.19;1802748;79;25705;-62
2022/11/21 01:30:22;;;;;;;26.05;13.38;;;;;;;2.42;86.48;100727.35;1766778;79;25825;-61
2022/11/21 01:32:49;;;;;;;29.00;13.13;;;;;;;2.50;86.32;100722.95;1802790;79;25474;-62
2022/11/21 01:35:17;;;;;;;25.37;12.37;;;;;;;2.53;86.18;100718.78;1802699;79;27465;-62
2022/11/21 01:37:49;;;;;;;25.52;12.78;;;;;;;2.60;85.97;100714.83;1802688;79;25671;-63
2022/11/21 01:40:16;;;;;;;25.12;13.98;;;;;;;2.64;86.03;100705.77;1802954;79;25780;-62
2022/11/21 01:42:54;;;;;;;28.38;14.10;;;;;;;2.66;85.78;100700.35;1802863;79;26585;-62
2022/11/21 01:46:02;;;;;;;29.72;15.53;;;;;;;2.63;85.17;100693.42;1739175;81;25754;-62
2022/11/21 01:48:39;;;;;;;28.47;15.45;;;;;;;2.58;85.01;100689.31;1748541;80;27480;-62
2022/11/21 01:51:32;;;;;;;30.77;16.00;;;;;;;2.54;84.91;100695.27;1742257;79;25745;-63
2022/11/21 01:54:11;;;;;;;31.45;15.68;;;;;;;2.50;85.09;100685.78;1778318;79;25773;-63
2022/11/21 01:56:49;;;;;;;34.92;16.17;;;;;;;2.46;85.15;100688.20;1803229;79;26703;-61
2022/11/21 01:59:24;;;;;;;29.12;15.08;;;;;;;2.49;85.33;100686.23;1802954;79;25662;-63
2022/11/21 02:01:53;;;;;;;29.57;14.50;;;;;;;2.48;85.26;100672.56;1802958;79;28127;-61
2022/11/21 02:04:24;;;;;;;33.70;16.77;;;;;;;2.45;85.40;100666.58;1802832;79;25826;-63
2022/11/21 02:06:51;;;;;;;31.68;16.32;;;;;;;2.47;85.55;100672.17;1803038;79;25698;-61
2022/11/21 02:09:18;;;;;;;36.75;18.67;;;;;;;2.50;85.77;100669.36;1803020;79;25945;-61
2022/11/21 02:11:55;;;;;;;34.58;17.35;;;;;;;2.56;86.03;100673.92;1803089;78;26164;-61
2022/11/21 02:14:22;;;;;;;34.80;17.82;;;;;;;2.60;86.01;100668.35;1802846;78;27624;-61
2022/11/21 02:16:50;;;;;;;31.30;15.13;;;;;;;2.64;86.03;100659.28;1802731;79;25943;-61
2022/11/21 02:19:29;;;;;;;34.70;17.10;;;;;;;2.65;85.56;100646.84;1759501;80;46037;-61
2022/11/21 02:22:10;;;;;;;30.68;14.70;;;;;;;2.65;85.43;100637.55;1757921;81;25794;-61
2022/11/21 02:25:07;;;;;;;27.48;13.22;;;;;;;2.67;85.43;100638.32;1759108;80;25780;-61
2022/11/21 02:27:34;;;;;;;25.27;12.50;;;;;;;2.71;85.54;100641.66;1758892;81;27450;-62
2022/11/21 02:30:03;;;;;;;22.40;11.78;;;;;;;2.68;85.04;100634.72;1758820;80;25746;-61
2022/11/21 02:32:37;;;;;;;25.57;12.60;;;;;;;2.58;84.78;100639.72;1758846;81;25753;-62
2022/11/21 02:35:05;;;;;;;25.08;12.50;;;;;;;2.57;85.29;100628.71;1759224;81;26205;-61
2022/11/21 02:37:35;;;;;;;24.27;12.03;;;;;;;2.59;85.34;100636.58;1758981;81;25717;-62
2022/11/21 02:40:10;;;;;;;22.93;11.33;;;;;;;2.60;85.50;100626.34;1758996;80;27466;-62
2022/11/21 02:42:48;;;;;;;28.38;12.45;;;;;;;2.66;85.72;100632.63;1758811;80;25677;-62
2022/11/21 02:45:38;;;;;;;26.33;12.95;;;;;;;2.72;85.93;100624.77;1726390;81;25716;-61
2022/11/21 02:48:05;;;;;;;26.12;11.70;;;;;;;2.76;85.77;100614.37;1709923;83;25790;-62
2022/11/21 02:50:36;;;;;;;19.92;9.80;;;;;;;2.81;85.50;100609.17;1745300;81;25772;-61
2022/11/21 02:53:07;;;;;;;19.67;10.20;;;;;;;2.77;84.95;100606.78;1750234;81;28283;-61
2022/11/21 02:55:33;;;;;;;20.23;11.12;;;;;;;2.69;84.57;100604.56;1717030;83;25644;-62
2022/11/21 02:58:01;;;;;;;24.57;11.93;;;;;;;2.66;84.74;100603.41;1717403;83;25812;-62
2022/11/21 03:00:28;;;;;;;21.25;11.53;;;;;;;2.64;84.84;100622.09;1717176;83;26411;-62
2022/11/21 03:02:55;;;;;;;20.15;10.10;;;;;;;2.65;85.18;100628.25;1716987;83;25825;-62
2022/11/21 03:05:23;;;;;;;19.65;11.00;;;;;;;2.72;85.80;100630.09;1717119;83;28151;-62
2022/11/21 03:07:49;;;;;;;19.95;9.83;;;;;;;2.80;86.29;100620.73;1716910;83;25727;-62
2022/11/21 03:10:17;;;;;;;19.65;11.00;;;;;;;2.88;86.51;100626.91;1717210;83;25810;-61
2022/11/21 03:12:44;;;;;;;17.70;9.85;;;;;;;2.95;86.31;100626.95;1716947;83;26638;-62
2022/11/21 03:15:13;;;;;;;17.27;9.85;;;;;;;3.00;85.91;100616.05;1717282;83;25488;-62
2022/11/21 03:17:41;;;;;;;14.73;8.90;;;;;;;2.96;84.46;100590.59;1720939;80;27470;-61
2022/11/21 03:20:10;;;;;;;20.35;10.20;;;;;;;2.86;83.98;100582.78;1734703;82;25814;-61
2022/11/21 03:22:37;;;;;;;20.25;10.05;;;;;;;2.73;83.89;100584.86;1734674;82;25787;-62
2022/11/21 03:25:05;;;;;;;17.37;10.38;;;;;;;2.67;84.22;100597.15;1734830;82;25960;-61
2022/11/21 03:27:31;;;;;;;16.17;9.55;;;;;;;2.64;84.53;100615.45;1734708;82;25864;-62
2022/11/21 03:29:58;;;;;;;16.80;10.10;;;;;;;2.65;84.84;100625.14;1734838;82;29724;-61
2022/11/21 03:32:25;;;;;;;15.15;9.53;;;;;;;2.63;84.75;100620.38;1734740;82;25893;-61
2022/11/21 03:34:52;;;;;;;15.72;8.95;;;;;;;2.62;84.56;100601.89;1735115;82;25664;-61
2022/11/21 03:37:19;;;;;;;16.67;9.03;;;;;;;2.60;84.14;100591.81;1734852;81;25709;-61
2022/11/21 03:39:46;;;;;;;14.13;8.98;;;;;;;2.57;84.38;100594.64;1735237;82;26141;-61
2022/11/21 03:42:12;;;;;;;16.37;9.60;;;;;;;2.56;84.65;100602.22;1734844;81;28176;-61
2022/11/21 03:44:39;;;;;;;13.43;8.50;;;;;;;2.57;84.89;100598.17;1725904;82;25945;-62
2022/11/21 03:47:06;;;;;;;14.63;8.60;;;;;;;2.59;84.75;100596.74;1712705;83;25808;-62
2022/11/21 03:49:32;;;;;;;14.33;8.60;;;;;;;2.62;84.51;100596.58;1720564;82;25800;-62
2022/11/21 03:52:00;;;;;;;13.13;8.43;;;;;;;2.61;84.34;100588.22;1738806;82;25768;-62
2022/11/21 03:54:27;;;;;;;11.08;7.40;;;;;;;2.62;84.47;100581.48;1735992;82;27468;-62
2022/11/21 03:56:54;;;;;;;11.30;7.33;;;;;;;2.65;84.72;100585.75;1734663;82;25705;-62
2022/11/21 03:59:21;;;;;;;12.37;8.03;;;;;;;2.68;84.96;100582.09;1735028;82;25757;-61
2022/11/21 04:01:48;;;;;;;13.60;8.83;;;;;;;2.73;85.18;100592.83;1734881;82;25860;-62
2022/11/21 04:04:15;;;;;;;13.40;8.63;;;;;;;2.76;85.19;100596.61;1734935;82;26129;-62
2022/11/21 04:06:42;;;;;;;13.60;7.83;;;;;;;2.74;84.82;100597.17;1734887;82;27477;-62
2022/11/21 04:09:09;;;;;;;14.73;8.28;;;;;;;2.75;85.18;100598.05;1734706;82;25775;-62
2022/11/21 04:11:36;;;;;;;19.30;8.25;;;;;;;2.80;85.52;100595.50;1734978;82;25791;-62
2022/11/21 04:14:03;;;;;;;13.10;8.28;;;;;;;2.87;85.87;100576.05;1734800;82;25793;-62
2022/11/21 04:16:30;;;;;;;11.38;7.33;;;;;;;2.91;85.31;100566.11;1734906;81;25796;-61
2022/11/21 04:18:56;;;;;;;9.68;6.83;;;;;;;2.89;85.07;100554.72;1743359;81;28373;-61
2022/11/21 04:21:23;;;;;;;13.43;7.45;;;;;;;2.86;84.85;100551.78;1714952;82;25928;-62
2022/11/21 04:23:49;;;;;;;10.25;6.92;;;;;;;2.86;85.03;100542.93;1714542;83;25796;-62
2022/11/21 04:26:16;;;;;;;13.22;8.03;;;;;;;2.85;84.96;100535.91;1748674;82;25624;-62
2022/11/21 04:28:43;;;;;;;9.65;6.72;;;;;;;2.80;84.98;100541.03;1714039;83;26670;-62
2022/11/21 04:31:09;;;;;;;9.88;6.67;;;;;;;2.74;84.87;100528.59;1715399;83;29655;-62
2022/11/21 04:33:37;;;;;;;12.45;7.83;;;;;;;2.69;85.02;100527.53;1748285;82;25728;-62
2022/11/21 04:36:05;;;;;;;11.45;7.25;;;;;;;2.65;85.16;100524.66;1715294;83;25752;-62
2022/11/21 04:38:32;;;;;;;13.62;7.62;;;;;;;2.64;85.40;100521.66;1748437;81;26530;-62
2022/11/21 04:40:59;;;;;;;12.68;7.35;;;;;;;2.64;85.53;100513.69;1748692;82;26034;-61
2022/11/21 04:43:25;;;;;;;9.48;6.22;;;;;;;2.63;85.66;100512.81;1714810;83;27488;-61
2022/11/21 04:45:52;;;;;;;11.20;6.90;;;;;;;2.65;85.70;100502.09;1709618;83;25677;-61
2022/11/21 04:48:19;;;;;;;9.70;6.40;;;;;;;2.62;85.71;100488.53;1710132;83;25756;-61
2022/11/21 04:50:46;;;;;;;11.73;6.78;;;;;;;2.59;85.74;100488.73;1774515;80;25859;-62
2022/11/21 04:53:14;;;;;;;11.10;6.67;;;;;;;2.56;85.73;100493.34;1784720;79;25678;-61
2022/11/21 04:55:40;;;;;;;11.08;6.25;;;;;;;2.54;85.95;100488.62;1791994;79;27411;-61
2022/11/21 04:58:07;;;;;;;9.40;5.65;;;;;;;2.52;85.85;100492.67;1791985;79;25847;-61
2022/11/21 05:00:34;;;;;;;9.15;6.50;;;;;;;2.56;86.28;100490.69;1791912;80;25721;-60
2022/11/21 05:03:04;;;;;;;9.68;6.17;;;;;;;2.59;86.37;100479.89;1792098;79;26565;-61
2022/11/21 05:05:31;;;;;;;9.25;6.35;;;;;;;2.60;86.41;100478.45;1743617;81;25465;-61
2022/11/21 05:07:57;;;;;;;12.00;6.78;;;;;;;2.66;86.70;100475.91;1747464;81;28385;-61
2022/11/21 05:10:24;;;;;;;9.78;6.53;;;;;;;2.66;86.27;100474.13;1749212;81;25798;-61
2022/11/21 05:15:50;;;;;;;9.78;6.20;;;;;;;2.69;86.51;100466.44;1716571;82;25814;-61
2022/11/21 05:18:15;;;;;;;10.30;6.28;;;;;;;2.66;86.34;100463.96;1690922;83;25733;-62
2022/11/21 05:20:41;;;;;;;8.63;5.80;;;;;;;2.69;86.52;100451.84;1762079;80;27285;-62
2022/11/21 05:23:08;;;;;;;10.60;6.22;;;;;;;2.72;86.53;100449.45;1763230;81;25775;-61
2022/11/21 05:25:34;;;;;;;8.90;5.25;;;;;;;2.73;86.51;100433.91;1769508;81;25660;-62
2022/11/21 05:28:01;;;;;;;10.08;5.60;;;;;;;2.69;86.21;100423.11;1759109;80;25844;-62
2022/11/21 05:30:28;;;;;;;7.20;4.78;;;;;;;2.63;86.20;100431.81;1755086;80;26574;-62
2022/11/21 05:32:55;;;;;;;8.28;5.37;;;;;;;2.57;86.02;100432.19;1754812;80;27457;-62
2022/11/21 05:35:22;;;;;;;8.35;4.37;;;;;;;2.53;86.09;100436.45;1704143;82;25748;-62
2022/11/21 05:37:56;;;;;;;6.50;4.25;;;;;;;2.50;86.17;100434.36;1703830;83;25764;-62
2022/11/21 05:40:24;;;;;;;6.45;4.58;;;;;;;2.47;86.19;100433.20;1703385;84;25832;-62
2022/11/21 05:45:36;;;;;;;6.30;3.87;;;;;;;2.41;86.45;100428.27;1730107;81;27557;-62
2022/11/21 05:48:06;;;;;;;7.25;4.33;;;;;;;2.35;86.38;100422.02;1737165;82;25529;-63
2022/11/21 05:50:31;;;;;;;9.48;4.78;;;;;;;2.26;86.24;100404.82;1739057;82;25684;-62
2022/11/21 05:53:03;;;;;;;5.92;4.15;;;;;;;2.22;86.67;100404.64;1798132;79;25755;-62
2022/11/21 05:55:32;;;;;;;6.12;3.80;;;;;;;2.13;86.72;100403.37;1796895;79;25719;-62
2022/11/21 05:58:00;;;;;;;5.87;3.10;;;;;;;2.09;86.88;100407.17;1781252;79;27461;-62
2022/11/21 06:00:28;;;;;;;5.17;3.33;;;;;;;2.08;87.33;100410.77;1773152;79;25738;-62
2022/11/21 06:05:40;;;;;;;6.00;3.60;;;;;;;1.97;87.60;100395.45;1784486;79;25801;-62
2022/11/21 06:08:07;;;;;;;4.03;2.75;;;;;;;2.00;88.24;100391.30;1784217;80;25712;-62
2022/11/21 06:10:35;;;;;;;4.28;2.42;;;;;;;2.01;88.54;100381.08;1784803;80;28356;-62
2022/11/21 06:13:02;;;;;;;3.30;2.55;;;;;;;1.99;88.17;100376.81;1784288;79;25860;-61
2022/11/21 06:15:29;;;;;;;3.37;2.75;;;;;;;2.01;88.36;100382.89;1775450;80;25669;-62
2022/11/21 06:17:59;;;;;;;5.35;2.80;;;;;;;2.02;88.40;100376.16;1754816;80;26506;-62
2022/11/21 06:20:26;;;;;;;4.05;2.98;;;;;;;2.03;88.44;100380.98;1710664;81;25504;-62
2022/11/21 06:22:53;;;;;;;4.78;3.35;;;;;;;2.04;88.57;100385.34;1753807;81;28459;-61
2022/11/21 06:25:20;;;;;;;4.47;3.00;;;;;;;2.03;88.35;100373.02;1753924;81;25930;-61
2022/11/21 06:27:46;;;;;;;4.40;2.87;;;;;;;2.00;88.41;100366.10;1753810;81;25702;-62
2022/11/21 06:30:15;;;;;;;7.05;2.77;;;;;;;1.98;88.79;100367.14;1744882;81;25778;-62
2022/11/21 06:32:41;;;;;;;4.22;2.65;;;;;;;1.97;88.82;100371.58;1736367;81;25835;-62
2022/11/21 06:35:08;;;;;;;3.90;2.20;;;;;;;1.97;89.11;100372.91;1734363;81;27532;-61
2022/11/21 06:37:35;;;;;;;3.62;2.25;;;;;;;2.06;89.26;100378.64;1717282;82;25802;-62
2022/11/21 06:40:05;;;;;;;3.60;2.10;;;;;;;2.11;89.22;100374.73;1717417;83;25665;-62
2022/11/21 06:42:32;;;;;;;2.67;2.17;;;;;;;2.17;89.19;100363.78;1754990;80;25794;-62
2022/11/21 06:44:59;;;;;;;3.00;2.00;;;;;;;2.21;88.88;100360.92;1735489;80;25794;-62
2022/11/21 06:47:26;;;;;;;5.75;1.95;;;;;;;2.22;88.64;100355.99;1727658;81;27654;-62
2022/11/21 06:49:52;;;;;;;3.60;1.77;;;;;;;2.21;88.39;100356.48;1700586;83;25801;-62
2022/11/21 06:52:19;;;;;;;2.77;1.77;;;;;;;2.20;88.48;100358.75;1702857;83;25809;-62
2022/11/21 06:54:46;;;;;;;2.08;1.50;;;;;;;2.22;88.47;100365.28;1701714;83;28020;-62
2022/11/21 06:57:12;;;;;;;3.02;2.02;;;;;;;2.27;88.57;100359.24;1701882;84;25793;-62
2022/11/21 06:59:39;;;;;;;2.40;2.02;;;;;;;2.31;88.66;100358.97;1701304;84;27485;-62
2022/11/21 07:02:14;;;;;;;2.55;1.92;;;;;;;2.42;89.00;100342.86;1705478;84;25753;-62
2022/11/21 07:04:41;;;;;;;2.90;2.00;;;;;;;2.46;88.58;100344.36;1705640;84;25820;-62
2022/11/21 07:07:08;;;;;;;2.30;1.37;;;;;;;2.46;87.79;100338.59;1706030;83;27875;-62
2022/11/21 07:09:35;;;;;;;1.87;1.37;;;;;;;2.46;87.27;100332.41;1703609;83;25754;-62
2022/11/21 07:14:50;;;;;;;2.60;1.55;;;;;;;2.47;87.32;100327.00;1746894;82;25961;-62
2022/11/21 07:17:16;;;;;;;1.90;1.40;;;;;;;2.47;87.01;100311.55;1712491;82;25804;-62
2022/11/21 07:19:43;;;;;;;2.80;1.47;;;;;;;2.44;87.05;100308.63;1748442;81;25791;-63
2022/11/21 07:22:10;;;;;;;2.22;1.72;;;;;;;2.46;87.03;100301.87;1755642;81;25806;-62
2022/11/21 07:24:37;;;;;;;1.70;1.57;;;;;;;2.44;86.96;100298.00;1763798;81;27570;-62
2022/11/21 07:27:04;;;;;;;1.40;1.30;;;;;;;2.37;86.54;100293.16;1764126;80;25790;-62
2022/11/21 07:29:30;;;;;;;1.52;1.35;;;;;;;2.32;86.79;100282.37;1763895;81;25742;-62
2022/11/21 07:31:57;;;;;;;1.40;1.30;;;;;;;2.28;87.00;100269.38;1764045;81;26805;-62
2022/11/21 07:34:23;;;;;;;1.17;1.10;;;;;;;2.25;87.22;100269.56;1764069;81;25730;-62
2022/11/21 07:36:50;;;;;;;1.50;1.40;;;;;;;2.24;87.44;100273.16;1763921;81;27483;-62
2022/11/21 07:39:17;;;;;;;1.75;1.25;;;;;;;2.23;87.62;100288.24;1764053;81;25714;-62
2022/11/21 07:41:43;;;;;;;1.80;1.70;;;;;;;2.28;87.81;100283.49;1762818;81;25903;-63
2022/11/21 07:44:10;;;;;;;1.72;1.42;;;;;;;2.25;87.22;100304.06;1764013;81;25835;-61
2022/11/21 07:46:36;;;;;;;2.12;1.60;;;;;;;2.16;87.19;100347.47;1763959;80;25779;-62
2022/11/21 07:49:03;;;;;;;3.05;1.90;;;;;;;2.18;87.75;100369.92;1758590;81;27480;-62
2022/11/21 07:51:30;;;;;;;6.53;1.67;;;;;;;2.21;87.81;100360.47;1716270;83;25758;-62
2022/11/21 07:53:57;;;;;;;1.95;1.47;;;;;;;2.28;87.97;100325.13;1731057;82;25751;-62
2022/11/21 07:56:25;;;;;;;3.95;2.47;;;;;;;2.27;87.20;100303.50;1743292;82;25781;-62
2022/11/21 07:58:52;;;;;;;2.10;1.50;;;;;;;2.27;87.06;100287.58;1743683;82;25784;-62
2022/11/21 08:01:19;;;;;;;1.60;1.50;;;;;;;2.23;87.00;100279.41;1743688;82;27574;-62
2022/11/21 08:03:45;;;;;;;3.85;1.40;;;;;;;2.22;86.94;100276.38;1743474;82;26134;-62
2022/11/21 08:06:13;;;;;;;1.87;1.57;;;;;;;2.25;87.07;100274.87;1743359;82;25861;-63
2022/11/21 08:08:39;;;;;;;3.17;1.40;;;;;;;2.24;87.07;100263.38;1743831;82;25809;-62
2022/11/21 08:11:07;;;;;;;2.40;1.17;;;;;;;2.27;87.21;100241.97;1720417;82;27343;-62
2022/11/21 08:13:34;;;;;;;2.40;1.70;;;;;;;2.31;87.28;100244.83;1699650;83;27478;-62
2022/11/21 08:16:05;;;;;;;2.83;1.82;;;;;;;2.31;87.31;100235.98;1703066;83;25943;-62
2022/11/21 08:18:32;;;;;;;3.83;1.85;;;;;;;2.32;87.37;100239.03;1704873;83;25974;-63
2022/11/21 08:21:04;;;;;;;2.87;1.90;;;;;;;2.34;87.56;100241.12;1706534;82;26589;-62
2022/11/21 08:23:31;;;;;;;4.42;2.27;;;;;;;2.37;87.64;100256.00;1702479;83;25776;-62
2022/11/21 08:25:58;;;;;;;3.17;2.15;;;;;;;2.38;87.70;100256.38;1739731;81;28103;-62
2022/11/21 08:28:25;;;;;;;3.10;2.42;;;;;;;2.43;87.80;100262.23;1739507;81;25913;-62
2022/11/21 08:30:53;;;;;;;2.85;2.05;;;;;;;2.46;87.51;100259.40;1759089;80;25686;-62
2022/11/21 08:33:20;;;;;;;2.37;2.17;;;;;;;2.48;87.49;100253.03;1750137;80;25859;-62
2022/11/21 08:35:46;;;;;;;3.02;1.70;;;;;;;2.54;87.27;100256.27;1733550;80;25927;-63
2022/11/21 08:38:13;;;;;;;2.08;1.47;;;;;;;2.53;87.22;100259.88;1726164;80;27468;-62
2022/11/21 08:40:40;;;;;;;1.77;1.57;;;;;;;2.55;87.29;100260.63;1754027;80;25486;-62
2022/11/21 08:43:09;;;;;;;3.70;1.75;;;;;;;2.59;87.22;100251.05;1759351;80;25715;-61
2022/11/21 08:45:38;;;;;;;1.50;1.40;;;;;;;2.57;86.90;100251.62;1732196;82;26409;-61
2022/11/21 08:48:10;;;;;;;1.62;1.52;;;;;;;2.58;86.75;100236.52;1732310;82;25905;-61
2022/11/21 08:50:38;;;;;;;2.83;1.70;;;;;;;2.60;86.42;100235.95;1728174;80;27479;-62
2022/11/21 08:53:04;;;;;;;1.60;1.37;;;;;;;2.55;86.23;100244.70;1752656;80;27391;-62
2022/11/21 08:55:32;;;;;;;2.95;1.75;;;;;;;2.57;86.59;100248.09;1742318;82;25792;-61
2022/11/21 08:57:58;;;;;;;5.20;1.72;;;;;;;2.56;86.27;100249.03;1742301;82;27933;-63
2022/11/21 09:00:26;;;;;;;1.67;1.42;;;;;;;2.56;86.48;100244.59;1742413;82;25690;-62
2022/11/21 09:02:53;;;;;;;1.95;1.57;;;;;;;2.62;86.58;100242.03;1742540;82;27590;-62
2022/11/21 09:05:20;;;;;;;2.22;1.50;;;;;;;2.65;86.48;100239.16;1742210;81;25753;-62
2022/11/21 09:07:47;;;;;;;1.90;1.70;;;;;;;2.68;86.41;100233.66;1742139;82;25720;-62
2022/11/21 09:10:15;;;;;;;1.85;1.60;;;;;;;2.71;86.26;100222.84;1742767;82;25794;-62
2022/11/21 09:12:43;;;;;;;2.85;1.77;;;;;;;2.75;86.30;100236.78;1744199;82;25752;-62
2022/11/21 09:18:02;;;;;;;1.95;1.37;;;;;;;2.72;86.23;100225.88;1743566;81;25816;-63
2022/11/21 09:20:35;;;;;;;1.87;1.62;;;;;;;2.68;85.65;100233.66;1746819;81;26421;-61
2022/11/21 09:23:09;;;;;;;2.70;1.80;;;;;;;2.58;85.40;100229.88;1707603;82;26530;-61
2022/11/21 09:25:36;;;;;;;1.70;1.60;;;;;;;2.53;85.34;100228.84;1738348;82;25728;-63
2022/11/21 09:28:05;;;;;;;3.85;1.70;;;;;;;2.53;85.48;100238.14;1707800;83;27599;-63
2022/11/21 09:30:33;;;;;;;2.33;1.52;;;;;;;2.41;85.00;100221.69;1738500;82;25805;-60
2022/11/21 09:33:03;;;;;;;2.05;1.85;;;;;;;2.45;85.65;100208.12;1704637;83;25775;-61
2022/11/21 09:35:30;;;;;;;1.40;1.30;;;;;;;2.52;85.79;100185.98;1782258;79;25760;-61
2022/11/21 09:37:58;;;;;;;1.32;1.22;;;;;;;2.62;86.13;100174.31;1797276;79;25681;-61
2022/11/21 09:40:25;;;;;;;5.35;1.85;;;;;;;2.72;86.10;100173.22;1778542;79;27379;-61
2022/11/21 09:43:19;;;;;;;4.75;2.10;;;;;;;2.82;86.04;100167.69;1798927;79;25788;-61
2022/11/21 09:45:49;;;;;;;3.25;2.50;;;;;;;2.96;86.27;100165.44;1792110;79;32954;-61
2022/11/21 09:48:37;;;;;;;4.12;2.50;;;;;;;3.06;85.99;100157.23;1785745;80;26372;-61
2022/11/21 09:51:13;;;;;;;3.62;1.80;;;;;;;3.07;85.89;100148.31;1773652;79;26450;-61
2022/11/21 09:54:02;;;;;;;5.00;2.62;;;;;;;3.11;85.48;100133.84;1793233;78;27655;-61
2022/11/21 09:56:34;;;;;;;2.83;2.08;;;;;;;3.10;85.31;100137.94;1808226;79;26152;-62
2022/11/21 09:59:22;;;;;;;3.45;1.70;;;;;;;3.14;85.67;100127.46;1754213;79;25458;-61
2022/11/21 10:01:49;;;;;;;4.75;3.10;;;;;;;3.21;85.73;100114.16;1800126;79;25787;-61
2022/11/21 10:04:16;;;;;;;3.00;2.17;;;;;;;3.27;85.36;100117.70;1779659;79;25829;-62
2022/11/21 10:07:16;;;;;;;6.25;3.27;;;;;;;3.34;85.44;100120.80;1800045;79;27432;-62
2022/11/21 10:10:17;;;;;;;3.05;2.00;;;;;;;3.38;85.22;100116.95;1794052;79;25754;-61
2022/11/21 10:12:49;;;;;;;2.22;2.02;;;;;;;3.45;84.63;100115.57;1766984;81;25842;-61
2022/11/21 10:15:39;;;;;;;2.40;2.15;;;;;;;3.53;84.98;100113.72;1767307;80;25816;-61
2022/11/21 10:18:40;;;;;;;2.12;1.77;;;;;;;3.58;84.71;100108.08;1784253;79;25758;-61
2022/11/21 10:21:37;;;;;;;2.55;1.70;;;;;;;3.60;84.22;100108.83;1799344;78;27474;-61
2022/11/21 10:24:43;;;;;;;2.27;1.85;;;;;;;3.64;83.50;100103.64;1744644;79;25654;-61
2022/11/21 10:27:28;;;;;;;1.80;1.65;;;;;;;3.57;83.58;100113.89;1764745;80;25765;-60
2022/11/21 10:30:03;;;;;;;2.12;1.80;;;;;;;3.61;84.10;100121.17;1784928;80;25849;-61
2022/11/21 10:32:47;;;;;;;4.80;2.30;;;;;;;3.63;83.70;100111.75;1769644;80;25734;-62
2022/11/21 10:35:38;;;;;;;3.17;1.80;;;;;;;3.60;82.39;100099.52;1807532;79;27474;-61
2022/11/21 10:38:25;;;;;;;2.67;1.50;;;;;;;3.54;82.79;100103.95;1807516;78;25673;-61
2022/11/21 10:41:06;;;;;;;1.62;1.50;;;;;;;3.54;82.90;100094.64;1762477;79;25774;-62
2022/11/21 10:46:32;;;;;;;3.17;2.17;;;;;;;3.51;82.67;100104.98;1770842;79;25416;-62
2022/11/21 10:49:01;;;;;;;2.08;1.72;;;;;;;3.47;82.99;100107.97;1761382;79;27694;-62
2022/11/21 10:52:01;;;;;;;4.28;2.30;;;;;;;3.50;82.87;100100.63;1761944;79;26712;-62
2022/11/21 10:54:34;;;;;;;2.80;1.92;;;;;;;3.45;82.58;100102.28;1770601;79;25791;-61
2022/11/21 10:57:17;;;;;;;4.78;2.60;;;;;;;3.43;82.84;100110.86;1759468;79;26749;-62
2022/11/21 11:00:14;;;;;;;1.62;1.50;;;;;;;3.41;82.79;100099.94;1764864;79;25858;-62
2022/11/21 11:03:03;;;;;;;1.95;1.50;;;;;;;3.43;82.85;100102.02;1773826;79;27485;-61
2022/11/21 11:05:32;;;;;;;4.42;2.22;;;;;;;3.41;82.83;100093.29;1763199;79;25836;-61
2022/11/21 11:08:11;;;;;;;2.77;2.00;;;;;;;3.41;83.07;100095.95;1756670;81;25847;-62
2022/11/21 11:10:45;;;;;;;4.72;2.52;;;;;;;3.41;83.22;100091.50;1772465;79;25803;-62
2022/11/21 11:13:32;;;;;;;2.98;2.05;;;;;;;3.46;83.32;100092.51;1754099;79;25838;-62
2022/11/21 11:16:15;;;;;;;4.47;1.80;;;;;;;3.55;83.38;100079.03;1769341;79;27484;-62
2022/11/21 11:19:02;;;;;;;1.57;1.47;;;;;;;3.56;82.61;100074.08;1783611;78;26710;-61
2022/11/21 11:21:40;;;;;;;2.98;2.30;;;;;;;3.55;82.82;100077.23;1766211;78;25774;-61
2022/11/21 11:24:15;;;;;;;4.67;2.37;;;;;;;3.55;82.68;100079.03;1748244;80;25892;-61
2022/11/21 11:26:53;;;;;;;7.40;4.40;;;;;;;3.55;82.89;100089.20;1750548;80;25837;-61
2022/11/21 11:29:28;;;;;;;4.65;2.58;;;;;;;3.52;82.44;100092.56;1720398;82;28537;-62
2022/11/21 11:32:04;;;;;;;4.28;2.30;;;;;;;3.51;82.66;100095.68;1752394;81;25936;-62
2022/11/21 11:34:44;;;;;;;1.80;1.55;;;;;;;3.41;81.71;100087.97;1748117;80;25809;-61
2022/11/21 11:37:40;;;;;;;1.45;1.35;;;;;;;3.37;81.74;100071.88;1726627;80;25825;-61
2022/11/21 11:40:21;;;;;;;2.10;1.82;;;;;;;3.35;82.09;100074.66;1724465;80;25738;-61
2022/11/21 11:49:26;;;;;;;2.60;2.40;;;;;;;3.19;82.38;100078.84;1752084;80;25760;-61
2022/11/21 11:51:58;;;;;;;2.58;2.10;;;;;;;3.17;82.26;100082.57;1724048;81;25817;-62
2022/11/21 11:54:33;;;;;;;3.50;2.15;;;;;;;3.11;82.34;100078.03;1744951;80;26657;-62
2022/11/21 11:57:02;;;;;;;2.15;1.45;;;;;;;3.04;82.01;100072.77;1745389;81;29723;-62
2022/11/21 11:59:40;;;;;;;2.00;1.80;;;;;;;3.05;82.59;100069.66;1741771;80;26226;-62
2022/11/21 12:02:25;;;;;;;5.12;1.52;;;;;;;3.09;82.79;100061.33;1735747;81;25711;-61
2022/11/21 12:05:04;;;;;;;3.50;2.02;;;;;;;3.15;83.01;100066.70;1730552;80;25840;-62
2022/11/21 12:07:38;;;;;;;3.05;2.25;;;;;;;3.03;82.11;100053.80;1736687;81;25717;-61